Time;durP1;ratioP1;P1;durP2;ratioP2;P2;SDS_P1;SDS_P2;PMS_P1;PMS_P2;Temp;Humidity;BMP_temperature;BMP_pressure;BME280_temperature;BME280_humidity;BME280_pressure;Samples;Min_cycle;Max_cycle;Signal;HPM_P1;HPM_P2
2021/09/11 00:00:15;;;;;;;10.07;7.10;;;;;;;;;;4994658;28;20069;-65
2021/09/11 00:02:44;;;;;;;9.65;6.90;;;;;;;;;;4994813;28;20061;-64
2021/09/11 00:05:10;;;;;;;11.07;7.75;;;;;;;;;;4994531;28;20062;-65
2021/09/11 00:07:36;;;;;;;10.48;7.93;;;;;;;;;;4994640;28;20058;-64
2021/09/11 00:10:02;;;;;;;11.02;7.70;;;;;;;;;;4994614;28;20040;-64
2021/09/11 00:12:27;;;;;;;10.50;7.30;;;;;;;;;;4994396;28;20034;-64
2021/09/11 00:14:53;;;;;;;12.45;7.80;;;;;;;;;;4994526;28;20010;-64
2021/09/11 00:17:18;;;;;;;11.82;7.65;;;;;;;;;;4994112;28;20034;-63
2021/09/11 00:19:43;;;;;;;10.50;7.10;;;;;;;;;;4994128;28;20084;-65
2021/09/11 00:22:09;;;;;;;13.63;8.15;;;;;;;;;;4994338;28;20073;-63
2021/09/11 00:24:35;;;;;;;13.38;8.07;;;;;;;;;;4994250;28;20027;-63
2021/09/11 00:27:00;;;;;;;10.82;8.07;;;;;;;;;;4993709;28;20038;-63
2021/09/11 00:29:26;;;;;;;11.23;8.02;;;;;;;;;;4993984;28;20080;-63
2021/09/11 00:31:51;;;;;;;9.77;7.50;;;;;;;;;;4994396;28;20461;-64
2021/09/11 00:34:17;;;;;;;9.68;7.43;;;;;;;;;;4994229;28;20030;-65
2021/09/11 00:36:42;;;;;;;9.88;6.65;;;;;;;;;;4994008;28;20033;-64
2021/09/11 00:39:08;;;;;;;10.23;7.32;;;;;;;;;;4993989;28;20022;-64
2021/09/11 00:41:34;;;;;;;14.15;8.20;;;;;;;;;;4992768;28;20046;-65
2021/09/11 00:43:59;;;;;;;12.13;8.20;;;;;;;;;;4994436;28;20046;-66
2021/09/11 00:46:25;;;;;;;10.65;8.20;;;;;;;;;;4993994;28;20069;-63
2021/09/11 00:48:51;;;;;;;10.93;7.45;;;;;;;;;;4993816;28;20018;-64
2021/09/11 00:51:16;;;;;;;9.07;7.18;;;;;;;;;;4993913;28;20085;-64
2021/09/11 00:53:42;;;;;;;9.88;7.60;;;;;;;;;;4993934;28;20026;-65
2021/09/11 00:56:08;;;;;;;10.65;8.10;;;;;;;;;;4976598;28;20037;-64
2021/09/11 00:58:33;;;;;;;10.75;7.35;;;;;;;;;;4994142;28;20025;-64
2021/09/11 01:00:59;;;;;;;10.38;7.18;;;;;;;;;;4994084;28;20431;-64
2021/09/11 01:03:24;;;;;;;10.25;7.65;;;;;;;;;;4993925;28;20109;-64
2021/09/11 01:05:50;;;;;;;7.88;6.80;;;;;;;;;;4993908;28;20183;-64
2021/09/11 01:08:15;;;;;;;9.23;6.85;;;;;;;;;;4993982;28;20026;-64
2021/09/11 01:10:41;;;;;;;8.25;6.63;;;;;;;;;;4993736;28;20136;-65
2021/09/11 01:13:10;;;;;;;7.65;6.82;;;;;;;;;;4993511;28;20057;-65
2021/09/11 01:15:40;;;;;;;9.00;6.82;;;;;;;;;;4992443;28;20095;-65
2021/09/11 01:18:06;;;;;;;9.43;6.60;;;;;;;;;;4976380;28;20041;-65
2021/09/11 01:20:32;;;;;;;9.38;6.50;;;;;;;;;;4997516;28;20022;-65
2021/09/11 01:22:57;;;;;;;7.85;6.80;;;;;;;;;;4997556;28;20487;-66
2021/09/11 01:25:23;;;;;;;10.57;6.72;;;;;;;;;;4997097;28;20030;-65
2021/09/11 01:27:49;;;;;;;9.73;7.05;;;;;;;;;;4997284;28;20116;-65
2021/09/11 01:30:16;;;;;;;8.52;6.82;;;;;;;;;;4997426;28;20023;-65
2021/09/11 01:32:41;;;;;;;6.97;6.28;;;;;;;;;;4979828;28;20485;-64
2021/09/11 01:35:07;;;;;;;8.65;5.97;;;;;;;;;;4997207;28;20089;-65
2021/09/11 01:37:33;;;;;;;7.43;6.63;;;;;;;;;;4997441;28;20027;-65
2021/09/11 01:39:58;;;;;;;10.82;6.43;;;;;;;;;;4997370;28;20022;-65
2021/09/11 01:42:26;;;;;;;9.30;6.55;;;;;;;;;;4997250;28;20030;-64
2021/09/11 01:44:56;;;;;;;7.93;6.78;;;;;;;;;;4997120;28;20040;-64
2021/09/11 01:47:21;;;;;;;10.03;6.87;;;;;;;;;;4997057;28;20023;-65
2021/09/11 01:49:46;;;;;;;8.75;6.97;;;;;;;;;;4997080;28;20049;-65
2021/09/11 01:52:12;;;;;;;10.70;6.75;;;;;;;;;;4996854;28;20085;-65
2021/09/11 01:54:38;;;;;;;9.18;6.50;;;;;;;;;;4997143;28;20121;-65
2021/09/11 01:57:07;;;;;;;10.80;6.47;;;;;;;;;;4996823;28;20443;-65
2021/09/11 01:59:33;;;;;;;9.43;6.22;;;;;;;;;;4979294;28;20026;-65
2021/09/11 02:01:58;;;;;;;9.93;6.75;;;;;;;;;;4997016;28;20026;-66
2021/09/11 02:04:24;;;;;;;7.32;6.28;;;;;;;;;;4996919;28;20037;-65
2021/09/11 02:06:49;;;;;;;8.35;6.38;;;;;;;;;;4997052;28;20022;-65
2021/09/11 02:09:15;;;;;;;9.98;6.65;;;;;;;;;;4997041;28;20104;-66
2021/09/11 02:11:40;;;;;;;10.98;7.05;;;;;;;;;;4996573;28;20105;-66
2021/09/11 02:14:06;;;;;;;9.55;6.78;;;;;;;;;;4996792;28;20030;-66
2021/09/11 02:16:32;;;;;;;9.40;7.05;;;;;;;;;;4996802;28;20536;-62
2021/09/11 02:18:57;;;;;;;7.75;6.88;;;;;;;;;;4979094;28;20045;-62
2021/09/11 02:21:23;;;;;;;8.60;6.32;;;;;;;;;;4995946;28;20066;-62
2021/09/11 02:23:48;;;;;;;11.68;6.93;;;;;;;;;;4996528;28;20040;-63
2021/09/11 02:26:14;;;;;;;9.18;6.57;;;;;;;;;;4995877;28;20026;-64
2021/09/11 02:28:39;;;;;;;8.43;6.97;;;;;;;;;;4996740;28;20030;-64
2021/09/11 02:31:05;;;;;;;8.88;6.68;;;;;;;;;;4977473;28;20097;-64
2021/09/11 02:33:30;;;;;;;10.95;6.60;;;;;;;;;;4996163;28;20101;-65
2021/09/11 02:35:56;;;;;;;8.10;6.35;;;;;;;;;;4996236;28;20014;-65
2021/09/11 02:38:21;;;;;;;7.30;6.45;;;;;;;;;;4996048;28;20030;-65
2021/09/11 02:40:47;;;;;;;8.38;6.68;;;;;;;;;;4996103;28;20453;-65
2021/09/11 02:43:12;;;;;;;8.25;6.78;;;;;;;;;;4994709;28;20060;-65
2021/09/11 02:45:37;;;;;;;7.50;5.95;;;;;;;;;;4994653;28;20544;-65
2021/09/11 02:48:03;;;;;;;9.55;6.30;;;;;;;;;;4996161;28;20034;-65
2021/09/11 02:50:28;;;;;;;8.10;6.53;;;;;;;;;;4996106;28;20105;-65
2021/09/11 02:52:54;;;;;;;8.98;6.28;;;;;;;;;;4995866;28;20369;-64
2021/09/11 02:55:19;;;;;;;10.05;6.00;;;;;;;;;;4996113;28;20468;-64
2021/09/11 02:57:45;;;;;;;9.32;6.68;;;;;;;;;;4995545;28;20097;-63
2021/09/11 03:00:10;;;;;;;6.68;5.78;;;;;;;;;;4995640;28;20050;-65
2021/09/11 03:02:36;;;;;;;7.47;6.20;;;;;;;;;;4978266;28;20380;-65
2021/09/11 03:05:02;;;;;;;6.68;5.85;;;;;;;;;;4995538;28;20018;-65
2021/09/11 03:07:28;;;;;;;10.02;5.85;;;;;;;;;;4995795;28;20473;-65
2021/09/11 03:09:53;;;;;;;6.68;5.97;;;;;;;;;;4978358;28;20050;-65
2021/09/11 03:12:19;;;;;;;6.93;5.60;;;;;;;;;;4995673;28;20052;-65
2021/09/11 03:14:44;;;;;;;9.30;5.85;;;;;;;;;;4995208;28;20018;-66
2021/09/11 03:17:09;;;;;;;7.45;6.00;;;;;;;;;;4995742;28;20038;-66
2021/09/11 03:19:35;;;;;;;6.32;5.72;;;;;;;;;;4995642;28;20081;-65
2021/09/11 03:22:00;;;;;;;6.50;5.63;;;;;;;;;;4995360;28;20096;-64
2021/09/11 03:24:26;;;;;;;6.47;5.82;;;;;;;;;;4995390;28;20432;-64
2021/09/11 03:26:52;;;;;;;6.88;5.82;;;;;;;;;;4994629;28;20038;-65
2021/09/11 03:29:17;;;;;;;6.35;5.25;;;;;;;;;;4995203;28;20059;-64
2021/09/11 03:31:43;;;;;;;5.78;5.00;;;;;;;;;;4995087;28;20133;-64
2021/09/11 03:34:08;;;;;;;5.95;5.10;;;;;;;;;;4995503;28;20018;-65
2021/09/11 03:36:33;;;;;;;5.72;4.55;;;;;;;;;;4994037;28;20053;-65
2021/09/11 03:38:59;;;;;;;7.60;4.88;;;;;;;;;;4995386;28;20065;-64
2021/09/11 03:41:25;;;;;;;6.30;5.05;;;;;;;;;;4994681;28;20026;-64
2021/09/11 03:43:51;;;;;;;5.70;4.60;;;;;;;;;;4994755;28;20018;-64
2021/09/11 03:46:16;;;;;;;5.75;5.10;;;;;;;;;;4994685;28;20030;-64
2021/09/11 03:48:42;;;;;;;6.90;5.28;;;;;;;;;;4977017;28;20492;-63
2021/09/11 03:51:08;;;;;;;5.97;4.43;;;;;;;;;;4994587;28;20488;-64
2021/09/11 03:53:33;;;;;;;7.40;5.22;;;;;;;;;;4994747;28;20021;-64
2021/09/11 03:55:59;;;;;;;6.35;5.03;;;;;;;;;;4994588;28;20487;-64
2021/09/11 03:58:24;;;;;;;6.30;4.78;;;;;;;;;;4994531;28;20081;-64
2021/09/11 04:00:50;;;;;;;6.15;5.00;;;;;;;;;;4994684;28;20026;-65
2021/09/11 04:03:15;;;;;;;6.30;5.13;;;;;;;;;;4994618;28;20022;-64
2021/09/11 04:05:41;;;;;;;6.03;4.78;;;;;;;;;;4994348;28;20069;-66
2021/09/11 04:08:06;;;;;;;4.68;4.28;;;;;;;;;;4977434;28;20491;-65
2021/09/11 04:10:32;;;;;;;7.38;4.82;;;;;;;;;;4994345;28;20041;-65
2021/09/11 04:12:57;;;;;;;6.70;5.00;;;;;;;;;;4994336;28;20483;-66
2021/09/11 04:15:23;;;;;;;6.28;4.80;;;;;;;;;;4994708;28;20072;-65
2021/09/11 04:17:48;;;;;;;4.88;4.30;;;;;;;;;;4994454;28;20037;-64
2021/09/11 04:20:14;;;;;;;4.53;4.22;;;;;;;;;;4994461;28;20046;-66
2021/09/11 04:22:39;;;;;;;4.88;4.40;;;;;;;;;;4994359;28;20022;-65
2021/09/11 04:25:05;;;;;;;5.70;4.63;;;;;;;;;;4994398;28;20030;-65
2021/09/11 04:27:33;;;;;;;5.65;5.10;;;;;;;;;;4993720;28;20070;-62
2021/09/11 04:29:58;;;;;;;7.35;4.75;;;;;;;;;;4994331;28;20093;-62
2021/09/11 04:32:24;;;;;;;7.30;4.72;;;;;;;;;;4994402;28;20042;-62
2021/09/11 04:34:49;;;;;;;7.28;4.78;;;;;;;;;;4994335;28;20424;-62
2021/09/11 04:37:15;;;;;;;16.73;5.75;;;;;;;;;;4994072;28;20527;-62
2021/09/11 04:39:41;;;;;;;8.45;4.90;;;;;;;;;;4993093;28;20035;-62
2021/09/11 04:42:06;;;;;;;5.95;4.38;;;;;;;;;;4994362;28;20033;-62
2021/09/11 04:44:32;;;;;;;7.50;4.45;;;;;;;;;;4994178;28;20093;-62
2021/09/11 04:46:57;;;;;;;7.47;4.68;;;;;;;;;;4994236;28;20392;-62
2021/09/11 04:49:23;;;;;;;8.65;5.13;;;;;;;;;;4994457;28;20034;-62
2021/09/11 04:51:48;;;;;;;5.18;4.60;;;;;;;;;;4993496;28;20034;-65
2021/09/11 04:54:14;;;;;;;5.75;4.53;;;;;;;;;;4963282;28;20019;-65
2021/09/11 04:56:39;;;;;;;5.53;5.03;;;;;;;;;;4998095;28;20446;-64
2021/09/11 04:59:05;;;;;;;8.27;5.00;;;;;;;;;;4998046;28;20037;-64
2021/09/11 05:01:30;;;;;;;5.13;4.65;;;;;;;;;;4997917;28;20057;-64
2021/09/11 05:03:56;;;;;;;5.63;4.60;;;;;;;;;;4996661;28;20030;-64
2021/09/11 05:06:21;;;;;;;5.13;4.63;;;;;;;;;;4987765;28;20027;-64
2021/09/11 05:08:47;;;;;;;6.55;5.00;;;;;;;;;;4977674;28;20121;-64
2021/09/11 05:11:12;;;;;;;8.88;4.78;;;;;;;;;;4978415;28;20462;-64
2021/09/11 05:13:38;;;;;;;7.20;4.82;;;;;;;;;;4976831;28;20126;-64
2021/09/11 05:16:03;;;;;;;5.05;4.53;;;;;;;;;;4988791;28;20109;-64
2021/09/11 05:18:32;;;;;;;5.47;4.15;;;;;;;;;;4997779;28;20022;-64
2021/09/11 05:21:02;;;;;;;9.55;4.78;;;;;;;;;;4997905;28;20500;-64
2021/09/11 05:23:27;;;;;;;4.97;4.15;;;;;;;;;;4997905;28;20026;-64
2021/09/11 05:25:52;;;;;;;5.03;4.55;;;;;;;;;;4997429;28;20097;-64
2021/09/11 05:28:18;;;;;;;8.43;4.72;;;;;;;;;;4996982;28;20058;-64
2021/09/11 05:30:44;;;;;;;6.25;4.82;;;;;;;;;;4979984;28;20026;-64
2021/09/11 05:33:09;;;;;;;5.53;4.95;;;;;;;;;;4980058;28;20038;-64
2021/09/11 05:35:35;;;;;;;5.53;4.47;;;;;;;;;;4997641;28;20369;-64
2021/09/11 05:38:00;;;;;;;4.72;4.28;;;;;;;;;;4997226;28;20121;-64
2021/09/11 05:40:25;;;;;;;4.32;4.03;;;;;;;;;;4997401;28;20018;-64
2021/09/11 05:42:51;;;;;;;5.72;4.15;;;;;;;;;;4995964;28;20034;-64
2021/09/11 05:45:16;;;;;;;5.75;4.45;;;;;;;;;;4997172;28;20431;-64
2021/09/11 05:47:42;;;;;;;5.32;4.03;;;;;;;;;;4997183;28;20141;-64
2021/09/11 05:50:09;;;;;;;5.70;4.13;;;;;;;;;;4997147;28;20413;-64
2021/09/11 05:52:34;;;;;;;5.13;4.50;;;;;;;;;;4996941;28;20124;-64
2021/09/11 05:55:00;;;;;;;4.70;4.03;;;;;;;;;;4996958;28;20074;-64
2021/09/11 05:57:25;;;;;;;4.75;4.13;;;;;;;;;;4997197;28;20435;-65
2021/09/11 05:59:51;;;;;;;19.08;5.50;;;;;;;;;;4996726;28;20472;-65
2021/09/11 06:02:17;;;;;;;7.72;4.00;;;;;;;;;;4996914;28;20125;-64
2021/09/11 06:04:42;;;;;;;4.65;3.85;;;;;;;;;;4996742;28;20101;-64
2021/09/11 06:07:08;;;;;;;7.13;4.15;;;;;;;;;;4993324;28;20389;-64
2021/09/11 06:09:33;;;;;;;5.80;4.28;;;;;;;;;;4987003;28;20457;-64
2021/09/11 06:11:59;;;;;;;4.13;3.72;;;;;;;;;;4983874;28;20034;-64
2021/09/11 06:14:25;;;;;;;8.07;6.25;;;;;;;;;;4988725;28;20096;-64
2021/09/11 06:16:50;;;;;;;5.97;4.93;;;;;;;;;;4984594;28;20081;-64
2021/09/11 06:19:16;;;;;;;4.97;4.47;;;;;;;;;;4976928;28;20045;-64
2021/09/11 06:21:41;;;;;;;5.18;4.68;;;;;;;;;;4985122;28;20030;-64
2021/09/11 06:24:07;;;;;;;5.22;4.68;;;;;;;;;;4987020;28;20019;-64
2021/09/11 06:26:32;;;;;;;7.53;4.45;;;;;;;;;;4989759;28;20018;-65
2021/09/11 06:28:58;;;;;;;6.32;3.95;;;;;;;;;;4993100;28;20044;-64
2021/09/11 06:31:23;;;;;;;8.18;4.78;;;;;;;;;;4996206;28;20568;-64
2021/09/11 06:33:49;;;;;;;8.52;4.22;;;;;;;;;;4988984;28;20109;-64
2021/09/11 06:36:14;;;;;;;4.95;4.45;;;;;;;;;;4977215;28;20033;-64
2021/09/11 06:38:40;;;;;;;4.78;4.20;;;;;;;;;;4976329;28;20015;-69
2021/09/11 06:41:05;;;;;;;4.47;4.07;;;;;;;;;;4976958;28;20126;-63
2021/09/11 06:43:31;;;;;;;6.63;4.90;;;;;;;;;;4959600;28;20042;-63
2021/09/11 06:45:56;;;;;;;6.57;4.80;;;;;;;;;;4976650;28;20026;-64
2021/09/11 06:48:22;;;;;;;6.40;4.50;;;;;;;;;;4976636;28;20041;-68
2021/09/11 06:50:47;;;;;;;6.65;4.20;;;;;;;;;;4976920;28;20077;-70
2021/09/11 06:53:13;;;;;;;6.90;4.63;;;;;;;;;;4976172;28;20077;-69
2021/09/11 06:55:38;;;;;;;7.63;4.45;;;;;;;;;;4985132;28;20392;-70
2021/09/11 06:58:04;;;;;;;6.28;4.70;;;;;;;;;;4995805;28;20026;-70
2021/09/11 07:00:29;;;;;;;6.93;5.00;;;;;;;;;;4995688;28;20019;-70
2021/09/11 07:02:55;;;;;;;5.20;3.95;;;;;;;;;;4995866;28;20038;-70
2021/09/11 07:05:21;;;;;;;6.25;3.88;;;;;;;;;;4995950;28;20026;-70
2021/09/11 07:07:46;;;;;;;7.28;4.25;;;;;;;;;;4995889;28;20054;-70
2021/09/11 07:10:12;;;;;;;6.60;4.72;;;;;;;;;;4974676;28;20041;-61
2021/09/11 07:12:37;;;;;;;5.00;3.95;;;;;;;;;;4975982;28;20205;-62
2021/09/11 07:15:04;;;;;;;5.72;4.47;;;;;;;;;;4974742;28;20025;-61
2021/09/11 07:17:29;;;;;;;4.25;3.75;;;;;;;;;;4981899;28;20058;-61
2021/09/11 07:19:55;;;;;;;5.05;3.88;;;;;;;;;;4994908;28;20056;-61
2021/09/11 07:22:20;;;;;;;5.10;4.22;;;;;;;;;;4986470;28;20113;-61
2021/09/11 07:24:46;;;;;;;4.80;3.88;;;;;;;;;;4976046;28;20359;-61
2021/09/11 07:27:11;;;;;;;6.68;4.15;;;;;;;;;;4992901;28;20073;-62
2021/09/11 07:29:37;;;;;;;5.53;4.38;;;;;;;;;;4995387;28;20486;-61
2021/09/11 07:32:04;;;;;;;5.57;4.05;;;;;;;;;;4994955;28;20042;-61
2021/09/11 07:34:29;;;;;;;7.15;4.82;;;;;;;;;;4984394;28;20385;-61
2021/09/11 07:36:55;;;;;;;5.18;4.38;;;;;;;;;;4994786;28;20030;-61
2021/09/11 07:39:20;;;;;;;6.00;3.97;;;;;;;;;;4994869;28;20018;-61
2021/09/11 07:41:46;;;;;;;5.43;4.63;;;;;;;;;;4994760;28;20378;-61
2021/09/11 07:44:11;;;;;;;7.05;4.13;;;;;;;;;;4995098;28;20026;-61
2021/09/11 07:46:37;;;;;;;4.43;4.03;;;;;;;;;;4994436;28;20022;-61
2021/09/11 07:49:03;;;;;;;4.05;3.60;;;;;;;;;;4995072;28;20077;-61
2021/09/11 07:51:28;;;;;;;4.15;3.78;;;;;;;;;;4994018;28;20026;-61
2021/09/11 07:53:54;;;;;;;5.80;3.53;;;;;;;;;;4994702;28;20021;-61
2021/09/11 07:56:19;;;;;;;5.97;3.63;;;;;;;;;;4994732;28;20369;-62
2021/09/11 07:58:45;;;;;;;6.50;3.75;;;;;;;;;;4993457;28;20019;-61
2021/09/11 08:01:11;;;;;;;5.30;3.95;;;;;;;;;;4994883;28;20030;-61
2021/09/11 08:03:36;;;;;;;7.07;4.40;;;;;;;;;;4994146;28;20014;-61
2021/09/11 08:06:07;;;;;;;5.28;4.00;;;;;;;;;;4994191;28;20038;-61
2021/09/11 08:08:36;;;;;;;7.43;4.30;;;;;;;;;;4994241;28;21112;-61
2021/09/11 08:11:02;;;;;;;7.35;4.15;;;;;;;;;;4994250;28;20128;-69
2021/09/11 08:13:28;;;;;;;7.78;4.18;;;;;;;;;;4993895;28;20033;-69
2021/09/11 08:15:55;;;;;;;5.30;3.75;;;;;;;;;;4984667;28;20440;-69
2021/09/11 08:18:20;;;;;;;6.55;3.55;;;;;;;;;;5002874;28;20386;-70
2021/09/11 08:20:46;;;;;;;3.95;3.55;;;;;;;;;;4994209;28;20025;-69
2021/09/11 08:23:11;;;;;;;4.75;3.80;;;;;;;;;;4993956;28;20069;-61
2021/09/11 08:25:37;;;;;;;6.13;4.22;;;;;;;;;;4994225;28;20018;-61
2021/09/11 08:28:03;;;;;;;6.70;3.85;;;;;;;;;;5008625;28;20087;-61
2021/09/11 08:30:28;;;;;;;5.20;3.90;;;;;;;;;;4993748;28;20104;-61
2021/09/11 08:32:54;;;;;;;4.43;3.50;;;;;;;;;;4993472;28;20030;-61
2021/09/11 08:35:19;;;;;;;5.07;3.50;;;;;;;;;;4993535;28;20376;-61
2021/09/11 08:37:45;;;;;;;4.72;3.38;;;;;;;;;;4993769;28;20033;-61
2021/09/11 08:40:11;;;;;;;5.13;3.20;;;;;;;;;;4993628;28;20018;-62
2021/09/11 08:42:36;;;;;;;3.53;3.05;;;;;;;;;;5006897;28;20022;-61
2021/09/11 08:45:02;;;;;;;4.57;3.33;;;;;;;;;;4993389;28;20037;-61
2021/09/11 08:47:28;;;;;;;3.17;2.75;;;;;;;;;;4993471;28;20058;-61
2021/09/11 08:49:53;;;;;;;5.25;3.17;;;;;;;;;;4984041;28;20104;-61
2021/09/11 08:52:19;;;;;;;4.10;3.20;;;;;;;;;;4993308;28;20027;-61
2021/09/11 08:54:45;;;;;;;4.15;3.13;;;;;;;;;;4993137;28;20473;-61
2021/09/11 08:57:16;;;;;;;5.70;3.35;;;;;;;;;;4993235;28;20034;-61
2021/09/11 08:59:42;;;;;;;7.55;3.45;;;;;;;;;;4993181;28;20061;-61
2021/09/11 09:02:09;;;;;;;3.45;3.20;;;;;;;;;;4993818;28;20274;-61
2021/09/11 09:04:51;;;;;;;4.18;3.53;;;;;;;;;;4994011;28;20062;-61
2021/09/11 09:07:29;;;;;;;5.13;2.80;;;;;;;;;;4993822;28;20030;-61
2021/09/11 09:10:00;;;;;;;6.07;3.67;;;;;;;;;;4993790;28;20042;-61
2021/09/11 09:12:29;;;;;;;4.10;2.95;;;;;;;;;;4993825;28;20030;-61
2021/09/11 09:15:02;;;;;;;5.53;3.40;;;;;;;;;;4992603;28;20014;-61
2021/09/11 09:17:46;;;;;;;6.78;3.75;;;;;;;;;;4993795;28;20034;-61
2021/09/11 09:20:17;;;;;;;4.97;3.63;;;;;;;;;;4994000;28;20034;-61
2021/09/11 09:22:43;;;;;;;5.43;3.47;;;;;;;;;;4993910;28;20034;-61
2021/09/11 09:25:24;;;;;;;4.70;3.33;;;;;;;;;;4992687;28;20585;-61
2021/09/11 09:27:51;;;;;;;6.03;3.53;;;;;;;;;;5003514;28;20046;-61
2021/09/11 09:30:21;;;;;;;3.42;3.08;;;;;;;;;;5013154;28;20480;-61
2021/09/11 09:32:48;;;;;;;4.13;3.75;;;;;;;;;;5007224;28;20416;-61
2021/09/11 09:35:17;;;;;;;4.70;3.50;;;;;;;;;;5003521;28;20029;-61
2021/09/11 09:37:56;;;;;;;3.30;3.00;;;;;;;;;;4980636;28;20421;-61
2021/09/11 09:40:35;;;;;;;4.38;3.15;;;;;;;;;;5003770;28;20488;-61
2021/09/11 09:43:01;;;;;;;4.85;2.92;;;;;;;;;;5017023;28;20183;-61
2021/09/11 09:45:27;;;;;;;4.97;2.83;;;;;;;;;;5013478;28;20437;-61
2021/09/11 09:48:03;;;;;;;4.72;3.50;;;;;;;;;;5016582;28;20030;-60
2021/09/11 09:50:29;;;;;;;5.53;3.35;;;;;;;;;;5016799;28;20122;-61
2021/09/11 09:52:55;;;;;;;3.25;2.95;;;;;;;;;;4999342;28;20028;-61
2021/09/11 09:55:20;;;;;;;3.17;2.88;;;;;;;;;;5016712;28;20105;-61
2021/09/11 09:57:47;;;;;;;3.42;2.47;;;;;;;;;;5011943;28;20385;-61
2021/09/11 10:00:13;;;;;;;1.92;1.80;;;;;;;;;;5006491;28;20027;-61
2021/09/11 10:02:39;;;;;;;4.35;2.97;;;;;;;;;;5010681;28;20076;-61
2021/09/11 10:05:05;;;;;;;4.43;2.90;;;;;;;;;;5016169;28;20496;-69
2021/09/11 10:07:30;;;;;;;4.07;3.15;;;;;;;;;;5002043;28;20033;-69
2021/09/11 10:09:56;;;;;;;3.55;2.72;;;;;;;;;;5001967;28;20081;-69
2021/09/11 10:12:29;;;;;;;3.20;2.90;;;;;;;;;;5006395;28;20536;-69
2021/09/11 10:15:14;;;;;;;3.75;3.13;;;;;;;;;;5001539;28;20481;-69
2021/09/11 10:17:40;;;;;;;3.30;2.85;;;;;;;;;;4983613;28;20034;-70
2021/09/11 10:20:05;;;;;;;4.72;2.85;;;;;;;;;;4979332;28;20019;-70
2021/09/11 10:22:31;;;;;;;5.03;3.15;;;;;;;;;;4996639;28;20076;-62
2021/09/11 10:25:04;;;;;;;4.03;2.92;;;;;;;;;;4996505;28;20499;-72
2021/09/11 10:27:34;;;;;;;3.20;2.90;;;;;;;;;;4995444;28;20476;-61
2021/09/11 10:30:03;;;;;;;3.38;2.70;;;;;;;;;;4995049;28;20034;-68
2021/09/11 10:32:36;;;;;;;3.95;3.15;;;;;;;;;;4995980;28;20417;-61
2021/09/11 10:35:02;;;;;;;5.18;3.00;;;;;;;;;;4995496;28;20026;-61
2021/09/11 10:37:33;;;;;;;5.43;2.80;;;;;;;;;;4995256;28;20030;-61
2021/09/11 10:40:17;;;;;;;3.92;3.20;;;;;;;;;;4978606;28;20030;-61
2021/09/11 10:42:58;;;;;;;5.43;3.22;;;;;;;;;;4981372;28;20034;-61
2021/09/11 10:45:36;;;;;;;5.53;2.60;;;;;;;;;;4994271;28;20034;-61
2021/09/11 10:48:05;;;;;;;7.97;3.88;;;;;;;;;;4977386;28;20041;-61
2021/09/11 10:50:36;;;;;;;6.13;4.10;;;;;;;;;;4976087;28;20037;-61
2021/09/11 10:53:17;;;;;;;3.90;2.92;;;;;;;;;;4975459;28;20038;-61
2021/09/11 10:55:43;;;;;;;5.63;3.75;;;;;;;;;;4976404;28;20456;-61
2021/09/11 10:58:40;;;;;;;4.78;3.33;;;;;;;;;;4976304;28;20060;-61
2021/09/11 11:01:06;;;;;;;5.40;3.28;;;;;;;;;;4933217;28;20047;-61
2021/09/11 11:03:31;;;;;;;7.03;3.83;;;;;;;;;;4976219;28;20474;-61
2021/09/11 11:06:01;;;;;;;5.70;3.20;;;;;;;;;;4976370;28;20027;-61
2021/09/11 11:08:28;;;;;;;6.60;3.33;;;;;;;;;;4958631;28;20137;-61
2021/09/11 11:10:53;;;;;;;5.95;3.38;;;;;;;;;;4976262;28;20057;-61
2021/09/11 11:13:20;;;;;;;4.88;2.65;;;;;;;;;;4975767;28;20058;-61
2021/09/11 11:15:54;;;;;;;6.00;3.30;;;;;;;;;;4958758;28;20060;-61
2021/09/11 11:18:20;;;;;;;4.18;3.13;;;;;;;;;;4975688;28;20409;-61
2021/09/11 11:20:45;;;;;;;5.70;4.28;;;;;;;;;;4975929;28;20030;-61
2021/09/11 11:23:11;;;;;;;5.88;4.05;;;;;;;;;;4975859;28;20037;-61
2021/09/11 11:25:39;;;;;;;5.00;3.58;;;;;;;;;;4976022;28;20417;-61
2021/09/11 11:28:06;;;;;;;6.88;3.33;;;;;;;;;;4987615;28;20042;-61
2021/09/11 11:30:31;;;;;;;5.53;3.45;;;;;;;;;;4995602;28;20030;-61
2021/09/11 11:33:00;;;;;;;5.75;3.33;;;;;;;;;;4995238;28;20108;-61
2021/09/11 11:35:26;;;;;;;6.57;3.15;;;;;;;;;;4995574;28;20488;-61
2021/09/11 11:37:51;;;;;;;3.00;2.72;;;;;;;;;;4995222;28;20026;-61
2021/09/11 11:40:16;;;;;;;4.57;3.55;;;;;;;;;;4995145;28;20514;-61
2021/09/11 11:42:43;;;;;;;3.38;3.08;;;;;;;;;;4995071;28;20034;-61
2021/09/11 11:45:10;;;;;;;3.40;2.85;;;;;;;;;;4994825;28;20029;-61
2021/09/11 11:47:44;;;;;;;5.32;3.53;;;;;;;;;;4980526;28;20037;-70
2021/09/11 11:50:18;;;;;;;5.53;3.30;;;;;;;;;;4993768;28;20041;-70
2021/09/11 11:52:45;;;;;;;4.40;2.85;;;;;;;;;;4995125;28;20394;-70
2021/09/11 11:55:10;;;;;;;6.57;3.53;;;;;;;;;;4994863;28;20018;-70
2021/09/11 11:57:36;;;;;;;4.28;2.42;;;;;;;;;;4994750;28;20385;-69
2021/09/11 12:00:16;;;;;;;5.57;3.67;;;;;;;;;;4994935;28;20042;-70
2021/09/11 12:02:43;;;;;;;6.38;2.90;;;;;;;;;;4994587;28;20116;-61
2021/09/11 12:05:11;;;;;;;5.97;3.25;;;;;;;;;;4994846;28;20073;-61
2021/09/11 12:07:37;;;;;;;3.65;3.20;;;;;;;;;;4994577;28;20026;-61
2021/09/11 12:10:03;;;;;;;6.95;2.90;;;;;;;;;;4994535;28;20053;-61
2021/09/11 12:12:48;;;;;;;6.25;2.70;;;;;;;;;;4994373;28;20038;-61
2021/09/11 12:15:17;;;;;;;4.22;2.60;;;;;;;;;;4994391;28;20088;-61
2021/09/11 12:18:01;;;;;;;6.43;2.92;;;;;;;;;;4994153;28;20017;-61
2021/09/11 12:20:27;;;;;;;3.28;2.70;;;;;;;;;;4993914;28;20101;-61
2021/09/11 12:23:07;;;;;;;4.20;2.25;;;;;;;;;;4993194;28;20026;-61
2021/09/11 12:25:51;;;;;;;4.90;2.72;;;;;;;;;;5009081;28;20038;-61
2021/09/11 12:28:38;;;;;;;2.70;2.50;;;;;;;;;;4993950;28;20133;-61
2021/09/11 12:31:12;;;;;;;4.45;2.53;;;;;;;;;;4994148;28;20052;-61
2021/09/11 12:33:41;;;;;;;3.10;2.70;;;;;;;;;;4975934;28;20034;-61
2021/09/11 12:36:22;;;;;;;4.80;2.97;;;;;;;;;;4986987;28;20129;-61
2021/09/11 12:38:48;;;;;;;7.47;2.65;;;;;;;;;;4982807;28;20037;-61
2021/09/11 12:41:13;;;;;;;3.03;2.17;;;;;;;;;;4974807;28;20019;-61
2021/09/11 12:43:39;;;;;;;3.38;2.72;;;;;;;;;;4981775;28;20066;-61
2021/09/11 12:46:04;;;;;;;3.67;2.83;;;;;;;;;;4956477;28;20034;-61
2021/09/11 12:48:30;;;;;;;6.35;2.90;;;;;;;;;;4957532;28;20077;-61
2021/09/11 12:50:55;;;;;;;3.42;2.75;;;;;;;;;;4974814;28;20027;-61
2021/09/11 12:53:21;;;;;;;3.08;2.72;;;;;;;;;;4974394;28;20097;-61
2021/09/11 12:55:46;;;;;;;3.53;3.15;;;;;;;;;;4971024;28;20110;-61
2021/09/11 12:58:12;;;;;;;6.13;3.17;;;;;;;;;;4993866;28;20026;-61
2021/09/11 13:00:37;;;;;;;3.50;3.20;;;;;;;;;;4985296;28;20026;-61
2021/09/11 13:03:03;;;;;;;4.95;2.85;;;;;;;;;;4974522;28;20038;-61
2021/09/11 13:05:28;;;;;;;3.83;2.95;;;;;;;;;;4975993;28;20034;-61
2021/09/11 13:07:54;;;;;;;7.70;2.63;;;;;;;;;;4993917;28;20026;-61
2021/09/11 13:10:19;;;;;;;6.15;2.63;;;;;;;;;;4993814;28;20023;-61
2021/09/11 13:12:45;;;;;;;5.07;3.15;;;;;;;;;;4993842;28;20068;-61
2021/09/11 13:15:11;;;;;;;5.18;2.83;;;;;;;;;;4973878;28;20019;-61
2021/09/11 13:17:37;;;;;;;5.10;2.78;;;;;;;;;;4978334;28;20019;-61
2021/09/11 13:20:03;;;;;;;6.03;2.85;;;;;;;;;;4978312;28;20022;-61
2021/09/11 13:22:29;;;;;;;3.65;2.88;;;;;;;;;;4977307;28;20050;-61
2021/09/11 13:24:54;;;;;;;5.45;2.85;;;;;;;;;;4978234;28;20031;-61
2021/09/11 13:27:20;;;;;;;3.45;2.70;;;;;;;;;;4986528;28;20039;-61
2021/09/11 13:29:46;;;;;;;5.20;2.95;;;;;;;;;;4997817;28;20041;-61
2021/09/11 13:32:11;;;;;;;3.67;2.95;;;;;;;;;;4997508;28;20113;-68
2021/09/11 13:34:37;;;;;;;4.05;2.80;;;;;;;;;;4997577;28;20023;-68
2021/09/11 13:37:02;;;;;;;7.07;3.40;;;;;;;;;;4997980;28;20018;-68
2021/09/11 13:39:28;;;;;;;7.53;3.20;;;;;;;;;;4997563;28;20050;-69
2021/09/11 13:41:54;;;;;;;4.68;3.15;;;;;;;;;;4992253;28;20022;-69
2021/09/11 13:44:20;;;;;;;6.38;3.33;;;;;;;;;;4979941;28;20037;-69
2021/09/11 13:46:45;;;;;;;4.70;3.25;;;;;;;;;;4982722;28;20030;-68
2021/09/11 13:49:11;;;;;;;4.97;2.95;;;;;;;;;;4976752;28;20055;-68
2021/09/11 13:51:36;;;;;;;4.88;3.17;;;;;;;;;;4980218;28;20022;-68
2021/09/11 13:54:02;;;;;;;5.38;3.03;;;;;;;;;;4981656;28;20385;-61
2021/09/11 13:56:27;;;;;;;4.40;3.60;;;;;;;;;;4976317;28;20022;-61
2021/09/11 13:58:53;;;;;;;5.30;3.45;;;;;;;;;;4977850;28;20069;-61
2021/09/11 14:01:18;;;;;;;5.38;3.28;;;;;;;;;;4977478;28;20350;-61
2021/09/11 14:03:44;;;;;;;5.45;3.17;;;;;;;;;;4989547;28;20026;-61
2021/09/11 14:06:10;;;;;;;6.72;3.30;;;;;;;;;;4990264;28;20529;-61
2021/09/11 14:08:36;;;;;;;5.95;3.40;;;;;;;;;;4984978;28;20027;-61
2021/09/11 14:11:02;;;;;;;6.82;3.28;;;;;;;;;;4986958;28;20492;-62
2021/09/11 14:13:27;;;;;;;6.60;3.33;;;;;;;;;;4981930;28;20038;-61
2021/09/11 14:15:54;;;;;;;7.95;3.20;;;;;;;;;;4976815;28;20030;-61
2021/09/11 14:18:19;;;;;;;4.93;3.45;;;;;;;;;;4980978;28;20022;-61
2021/09/11 14:20:45;;;;;;;5.43;3.20;;;;;;;;;;4995780;28;20021;-61
2021/09/11 14:23:10;;;;;;;12.75;4.18;;;;;;;;;;4996171;28;20038;-61
2021/09/11 14:25:37;;;;;;;7.63;3.10;;;;;;;;;;4987036;28;20026;-61
2021/09/11 14:28:03;;;;;;;6.57;3.40;;;;;;;;;;4987230;28;20038;-61
2021/09/11 14:30:28;;;;;;;8.63;3.75;;;;;;;;;;5011443;28;20130;-61
2021/09/11 14:32:54;;;;;;;8.93;3.40;;;;;;;;;;4995766;28;20117;-61
2021/09/11 14:35:19;;;;;;;3.90;3.10;;;;;;;;;;4996019;28;20072;-61
2021/09/11 14:37:45;;;;;;;4.85;3.25;;;;;;;;;;4996367;28;20026;-61